createdAt,value
2022-08-28T00:00:40.667Z,1011.28
2022-08-28T00:01:40.656Z,1011.31
2022-08-28T00:02:40.676Z,1011.31
2022-08-28T00:03:40.637Z,1011.31
2022-08-28T00:04:40.694Z,1011.26
2022-08-28T00:05:40.615Z,1011.32
2022-08-28T00:06:40.627Z,1011.26
2022-08-28T00:07:44.297Z,1011.29
2022-08-28T00:08:41.577Z,1011.30
2022-08-28T00:09:40.566Z,1011.29
2022-08-28T00:10:40.578Z,1011.31
2022-08-28T00:11:40.548Z,1011.30
2022-08-28T00:12:40.537Z,1011.27
2022-08-28T00:13:40.528Z,1011.29
2022-08-28T00:14:40.538Z,1011.29
2022-08-28T00:15:40.645Z,1011.27
2022-08-28T00:16:40.495Z,1011.30
2022-08-28T00:17:40.489Z,1011.29
2022-08-28T00:18:40.476Z,1011.28
2022-08-28T00:19:40.466Z,1011.25
2022-08-28T00:20:40.477Z,1011.24
2022-08-28T00:21:40.456Z,1011.26
2022-08-28T00:22:40.427Z,1011.23
2022-08-28T00:23:43.036Z,1011.23
2022-08-28T00:24:40.407Z,1011.21
2022-08-28T00:25:40.397Z,1011.25
2022-08-28T00:26:40.418Z,1011.22
2022-08-28T00:27:40.385Z,1011.19
2022-08-28T00:28:40.369Z,1011.21
2022-08-28T00:29:40.365Z,1011.25
2022-08-28T00:30:40.352Z,1011.25
2022-08-28T00:31:40.420Z,1011.26
2022-08-28T00:32:40.319Z,1011.28
2022-08-28T00:33:40.319Z,1011.28
2022-08-28T00:34:40.299Z,1011.27
2022-08-28T00:35:40.310Z,1011.29
2022-08-28T00:36:40.280Z,1011.25
2022-08-28T00:37:40.308Z,1011.26
2022-08-28T00:38:40.268Z,1011.28
2022-08-28T00:39:40.247Z,1011.26
2022-08-28T00:40:40.347Z,1011.31
2022-08-28T00:41:41.137Z,1011.28
2022-08-28T00:42:40.218Z,1011.26
2022-08-28T00:43:40.238Z,1011.30
2022-08-28T00:44:40.199Z,1011.30
2022-08-28T00:45:40.427Z,1011.29
2022-08-28T00:46:40.233Z,1011.30
2022-08-28T00:47:40.209Z,1011.27
2022-08-28T00:48:40.168Z,1011.29
2022-08-28T00:49:40.147Z,1011.33
2022-08-28T00:50:40.128Z,1011.32
2022-08-28T00:51:40.153Z,1011.33
2022-08-28T00:52:40.146Z,1011.35
2022-08-28T00:53:40.101Z,1011.33
2022-08-28T00:54:40.088Z,1011.34
2022-08-28T00:55:40.092Z,1011.35
2022-08-28T00:56:40.069Z,1011.35
2022-08-28T00:57:40.079Z,1011.35
2022-08-28T00:58:40.089Z,1011.36
2022-08-28T00:59:40.049Z,1011.36
2022-08-28T01:00:40.020Z,1011.36
2022-08-28T01:01:40.090Z,1011.33
2022-08-28T01:02:40.045Z,1011.35
2022-08-28T01:03:40.014Z,1011.32
2022-08-28T01:04:40.009Z,1011.33
2022-08-28T01:05:39.976Z,1011.36
2022-08-28T01:06:39.969Z,1011.38
2022-08-28T01:07:40.013Z,1011.37
2022-08-28T01:08:39.949Z,1011.36
2022-08-28T01:09:39.933Z,1011.38
2022-08-28T01:10:39.918Z,1011.35
2022-08-28T01:11:39.909Z,1011.37
2022-08-28T01:12:39.948Z,1011.33
2022-08-28T01:13:39.889Z,1011.35
2022-08-28T01:14:39.887Z,1011.33
2022-08-28T01:15:39.891Z,1011.34
2022-08-28T01:16:39.849Z,1011.35
2022-08-28T01:17:40.067Z,1011.37
2022-08-28T01:18:39.839Z,1011.36
2022-08-28T01:19:39.820Z,1011.37
2022-08-28T01:20:39.919Z,1011.38
2022-08-28T01:21:39.802Z,1011.37
2022-08-28T01:22:39.791Z,1011.39
2022-08-28T01:23:39.790Z,1011.43
2022-08-28T01:24:39.779Z,1011.39
2022-08-28T01:25:39.760Z,1011.40
2022-08-28T01:26:39.770Z,1011.42
2022-08-28T01:27:39.738Z,1011.41
2022-08-28T01:28:39.759Z,1011.45
2022-08-28T01:29:39.720Z,1011.50
2022-08-28T01:30:39.700Z,1011.49
2022-08-28T01:31:39.750Z,1011.46
2022-08-28T01:32:39.679Z,1011.48
2022-08-28T01:33:42.291Z,1011.45
2022-08-28T01:34:39.660Z,1011.47
2022-08-28T01:35:39.670Z,1011.43
2022-08-28T01:36:39.672Z,1011.45
2022-08-28T01:37:39.629Z,1011.46
2022-08-28T01:38:39.621Z,1011.50
2022-08-28T01:39:39.609Z,1011.51
2022-08-28T01:40:39.617Z,1011.48
2022-08-28T01:41:39.590Z,1011.51
2022-08-28T01:42:39.609Z,1011.53
2022-08-28T01:43:39.569Z,1011.55
2022-08-28T01:44:39.613Z,1011.60
2022-08-28T01:45:39.550Z,1011.56
2022-08-28T01:46:39.578Z,1011.53
2022-08-28T01:47:39.530Z,1011.57
2022-08-28T01:48:39.510Z,1011.62
2022-08-28T01:49:39.530Z,1011.56
2022-08-28T01:50:39.492Z,1011.56
2022-08-28T01:51:39.480Z,1011.58
2022-08-28T01:52:39.531Z,1011.56
2022-08-28T01:53:39.460Z,1011.59
2022-08-28T01:54:39.450Z,1011.60
2022-08-28T01:55:39.442Z,1011.61
2022-08-28T01:56:39.430Z,1011.66
2022-08-28T01:57:39.420Z,1011.59
2022-08-28T01:58:39.441Z,1011.62
2022-08-28T01:59:39.400Z,1011.58
2022-08-28T02:00:39.381Z,1011.66
2022-08-28T02:01:39.419Z,1011.61
2022-08-28T02:02:39.362Z,1011.68
2022-08-28T02:03:39.383Z,1011.64
2022-08-28T02:04:39.384Z,1011.61
2022-08-28T02:05:39.330Z,1011.64
2022-08-28T02:06:39.321Z,1011.65
2022-08-28T02:07:39.310Z,1011.60
2022-08-28T02:08:40.630Z,1011.67
2022-08-28T02:09:39.290Z,1011.64
2022-08-28T02:10:39.281Z,1011.63
2022-08-28T02:11:39.301Z,1011.67
2022-08-28T02:12:39.270Z,1011.65
2022-08-28T02:13:39.253Z,1011.69
2022-08-28T02:14:39.238Z,1011.67
2022-08-28T02:15:39.238Z,1011.68
2022-08-28T02:16:39.213Z,1011.69
2022-08-28T02:17:39.281Z,1011.72
2022-08-28T02:18:39.200Z,1011.71
2022-08-28T02:19:39.181Z,1011.73
2022-08-28T02:20:39.171Z,1011.72
2022-08-28T02:21:39.160Z,1011.79
2022-08-28T02:22:39.153Z,1011.74
2022-08-28T02:23:39.171Z,1011.72
2022-08-28T02:24:39.131Z,1011.73
2022-08-28T02:25:39.189Z,1011.69
2022-08-28T02:26:39.101Z,1011.74
2022-08-28T02:27:39.131Z,1011.75
2022-08-28T02:28:39.082Z,1011.78
2022-08-28T02:29:39.101Z,1011.77
2022-08-28T02:30:39.113Z,1011.79
2022-08-28T02:31:39.062Z,1011.82
2022-08-28T02:32:39.041Z,1011.78
2022-08-28T02:33:39.031Z,1011.81
2022-08-28T02:34:39.061Z,1011.86
2022-08-28T02:35:39.011Z,1011.85
2022-08-28T02:36:39.000Z,1011.84
2022-08-28T02:37:38.991Z,1011.87
2022-08-28T02:38:38.980Z,1011.82
2022-08-28T02:39:38.971Z,1011.86
2022-08-28T02:40:39.034Z,1011.84
2022-08-28T02:41:38.951Z,1011.82
2022-08-28T02:42:38.930Z,1011.82
2022-08-28T02:43:38.922Z,1011.84
2022-08-28T02:44:38.911Z,1011.89
2022-08-28T02:45:38.902Z,1011.81
2022-08-28T02:46:38.966Z,1011.86
2022-08-28T02:47:38.888Z,1011.86
2022-08-28T02:48:38.872Z,1011.88
2022-08-28T02:49:38.865Z,1011.89
2022-08-28T02:50:38.878Z,1011.89
2022-08-28T02:51:38.841Z,1011.88
2022-08-28T02:52:39.485Z,1011.87
2022-08-28T02:53:38.830Z,1011.89
2022-08-28T02:54:38.815Z,1011.89
2022-08-28T02:55:42.302Z,1011.94
2022-08-28T02:56:38.822Z,1011.92
2022-08-28T02:57:38.781Z,1011.92
2022-08-28T02:58:38.760Z,1011.95
2022-08-28T02:59:38.761Z,1011.93
2022-08-28T03:00:38.742Z,1011.92
2022-08-28T03:01:38.760Z,1011.95
2022-08-28T03:02:38.764Z,1011.89
2022-08-28T03:03:38.710Z,1011.90
2022-08-28T03:04:38.702Z,1011.93
2022-08-28T03:05:38.691Z,1011.84
2022-08-28T03:06:38.727Z,1011.89
2022-08-28T03:07:38.669Z,1011.91
2022-08-28T03:08:38.691Z,1011.90
2022-08-28T03:09:38.641Z,1011.89
2022-08-28T03:10:38.639Z,1011.89
2022-08-28T03:11:38.620Z,1011.92
2022-08-28T03:12:38.622Z,1011.98
2022-08-28T03:13:38.601Z,1011.95
2022-08-28T03:14:38.641Z,1011.99
2022-08-28T03:15:38.582Z,1011.95
2022-08-28T03:16:38.650Z,1011.98
2022-08-28T03:17:38.563Z,1011.97
2022-08-28T03:18:38.601Z,1011.98
2022-08-28T03:19:38.532Z,1011.97
2022-08-28T03:20:38.531Z,1011.96
2022-08-28T03:21:38.518Z,1011.97
2022-08-28T03:22:38.518Z,1011.97
2022-08-28T03:23:38.491Z,1011.93
2022-08-28T03:24:38.511Z,1011.95
2022-08-28T03:25:38.471Z,1011.96
2022-08-28T03:26:38.491Z,1011.92
2022-08-28T03:27:38.451Z,1011.90
2022-08-28T03:28:38.457Z,1011.99
2022-08-28T03:29:38.433Z,1011.98
2022-08-28T03:30:38.510Z,1011.92
2022-08-28T03:31:38.413Z,1011.96
2022-08-28T03:32:38.401Z,1011.91
2022-08-28T03:33:38.381Z,1011.90
2022-08-28T03:34:38.388Z,1011.92
2022-08-28T03:35:38.382Z,1011.96
2022-08-28T03:36:38.383Z,1011.98
2022-08-28T03:37:38.358Z,1011.97
2022-08-28T03:38:38.378Z,1011.99
2022-08-28T03:39:38.330Z,1011.99
2022-08-28T03:40:38.385Z,1011.99
2022-08-28T03:41:38.302Z,1011.99
2022-08-28T03:42:38.292Z,1012.00
2022-08-28T03:43:38.283Z,1011.98
2022-08-28T03:44:38.292Z,1011.96
2022-08-28T03:45:38.300Z,1011.96
2022-08-28T03:46:38.251Z,1011.97
2022-08-28T03:47:38.240Z,1011.97
2022-08-28T03:48:38.232Z,1011.96
2022-08-28T03:49:38.262Z,1011.98
2022-08-28T03:50:38.209Z,1011.95
2022-08-28T03:51:38.194Z,1011.95
2022-08-28T03:52:38.182Z,1011.95
2022-08-28T03:53:38.192Z,1011.98
2022-08-28T03:54:38.163Z,1011.97
2022-08-28T03:55:38.171Z,1011.93
2022-08-28T03:56:38.142Z,1011.91
2022-08-28T03:57:38.169Z,1012.00
2022-08-28T03:58:38.153Z,1012.00
2022-08-28T03:59:38.103Z,1012.00
2022-08-28T04:00:38.099Z,1011.98
2022-08-28T04:01:38.239Z,1011.95
2022-08-28T04:02:38.102Z,1011.98
2022-08-28T04:03:38.137Z,1012.01
2022-08-28T04:04:38.071Z,1012.03
2022-08-28T04:05:38.042Z,1012.01
2022-08-28T04:06:38.062Z,1012.04
2022-08-28T04:07:38.042Z,1012.04
2022-08-28T04:08:38.011Z,1012.05
2022-08-28T04:09:37.991Z,1012.05
2022-08-28T04:10:38.174Z,1012.02
2022-08-28T04:11:37.972Z,1012.07
2022-08-28T04:12:37.972Z,1012.04
2022-08-28T04:13:37.952Z,1012.03
2022-08-28T04:14:37.943Z,1012.02
2022-08-28T04:15:37.931Z,1012.04
2022-08-28T04:16:37.977Z,1012.05
2022-08-28T04:17:37.911Z,1012.09
2022-08-28T04:18:37.902Z,1012.09
2022-08-28T04:19:37.893Z,1012.08
2022-08-28T04:20:37.879Z,1012.07
2022-08-28T04:21:37.930Z,1012.11
2022-08-28T04:22:37.888Z,1012.10
2022-08-28T04:23:37.842Z,1012.10
2022-08-28T04:24:37.842Z,1012.08
2022-08-28T04:25:37.833Z,1012.12
2022-08-28T04:26:37.831Z,1012.12
2022-08-28T04:27:37.813Z,1012.07
2022-08-28T04:28:37.829Z,1012.08
2022-08-28T04:29:37.782Z,1012.13
2022-08-28T04:30:37.801Z,1012.12
2022-08-28T04:31:37.804Z,1012.06
2022-08-28T04:32:37.754Z,1012.09
2022-08-28T04:33:37.743Z,1012.11
2022-08-28T04:34:37.752Z,1012.14
2022-08-28T04:35:37.752Z,1012.18
2022-08-28T04:36:37.772Z,1012.11
2022-08-28T04:37:37.692Z,1012.13
2022-08-28T04:38:42.952Z,1012.15
2022-08-28T04:39:38.694Z,1012.16
2022-08-28T04:40:37.729Z,1012.19
2022-08-28T04:41:37.681Z,1012.16
2022-08-28T04:42:37.642Z,1012.18
2022-08-28T04:43:37.634Z,1012.20
2022-08-28T04:44:37.644Z,1012.18
2022-08-28T04:45:37.693Z,1012.21
2022-08-28T04:46:37.608Z,1012.20
2022-08-28T04:47:37.582Z,1012.20
2022-08-28T04:48:37.582Z,1012.18
2022-08-28T04:49:37.562Z,1012.23
2022-08-28T04:50:37.562Z,1012.20
2022-08-28T04:51:41.478Z,1012.20
2022-08-28T04:52:37.571Z,1012.18
2022-08-28T04:53:37.520Z,1012.17
2022-08-28T04:54:37.512Z,1012.20
2022-08-28T04:55:54.490Z,1012.19
2022-08-28T04:56:38.502Z,1012.18
2022-08-28T04:57:37.522Z,1012.19
2022-08-28T04:58:37.472Z,1012.15
2022-08-28T04:59:37.459Z,1012.20
2022-08-28T05:00:37.467Z,1012.23
2022-08-28T05:01:37.442Z,1012.20
2022-08-28T05:02:37.536Z,1012.20
2022-08-28T05:03:37.462Z,1012.23
2022-08-28T05:04:37.403Z,1012.22
2022-08-28T05:05:37.392Z,1012.25
2022-08-28T05:06:37.413Z,1012.21
2022-08-28T05:07:37.372Z,1012.22
2022-08-28T05:08:40.573Z,1012.22
2022-08-28T05:09:37.351Z,1012.29
2022-08-28T05:10:37.343Z,1012.24
2022-08-28T05:11:37.352Z,1012.29
2022-08-28T05:12:37.322Z,1012.30
2022-08-28T05:13:37.322Z,1012.30
2022-08-28T05:14:37.323Z,1012.31
2022-08-28T05:15:37.313Z,1012.32
2022-08-28T05:16:37.353Z,1012.36
2022-08-28T05:17:37.272Z,1012.33
2022-08-28T05:18:37.260Z,1012.38
2022-08-28T05:19:37.275Z,1012.43
2022-08-28T05:20:37.241Z,1012.41
2022-08-28T05:21:37.242Z,1012.43
2022-08-28T05:22:37.213Z,1012.42
2022-08-28T05:23:37.193Z,1012.42
2022-08-28T05:24:37.239Z,1012.44
2022-08-28T05:25:37.172Z,1012.48
2022-08-28T05:26:38.906Z,1012.45
2022-08-28T05:27:37.152Z,1012.47
2022-08-28T05:28:37.152Z,1012.47
2022-08-28T05:29:37.152Z,1012.45
2022-08-28T05:30:37.125Z,1012.46
2022-08-28T05:31:37.240Z,1012.44
2022-08-28T05:32:37.122Z,1012.45
2022-08-28T05:33:37.091Z,1012.43
2022-08-28T05:34:37.082Z,1012.44
2022-08-28T05:35:37.072Z,1012.50
2022-08-28T05:36:37.060Z,1012.49
2022-08-28T05:37:37.053Z,1012.49
2022-08-28T05:38:37.230Z,1012.45
2022-08-28T05:39:37.021Z,1012.52
2022-08-28T05:40:37.110Z,1012.49
2022-08-28T05:41:37.013Z,1012.53
2022-08-28T05:42:38.955Z,1012.54
2022-08-28T05:43:37.069Z,1012.57
2022-08-28T05:44:37.030Z,1012.55
2022-08-28T05:45:36.992Z,1012.51
2022-08-28T05:46:36.950Z,1012.53
2022-08-28T05:47:36.942Z,1012.56
2022-08-28T05:48:39.030Z,1012.54
2022-08-28T05:49:36.911Z,1012.54
2022-08-28T05:50:36.935Z,1012.53
2022-08-28T05:51:36.901Z,1012.58
2022-08-28T05:52:36.883Z,1012.59
2022-08-28T05:53:36.872Z,1012.58
2022-08-28T05:54:36.862Z,1012.63
2022-08-28T05:55:36.951Z,1012.62
2022-08-28T05:56:36.842Z,1012.62
2022-08-28T05:57:36.832Z,1012.64
2022-08-28T05:58:36.832Z,1012.64
2022-08-28T05:59:36.803Z,1012.62
2022-08-28T06:00:36.803Z,1012.65
2022-08-28T06:01:36.838Z,1012.64
2022-08-28T06:02:36.779Z,1012.67
2022-08-28T06:03:36.801Z,1012.65
2022-08-28T06:04:36.812Z,1012.68
2022-08-28T06:05:36.772Z,1012.69
2022-08-28T06:06:36.732Z,1012.69
2022-08-28T06:07:36.724Z,1012.68
2022-08-28T06:08:36.714Z,1012.71
2022-08-28T06:09:36.752Z,1012.69
2022-08-28T06:10:36.692Z,1012.72
2022-08-28T06:11:36.685Z,1012.72
2022-08-28T06:12:36.672Z,1012.73
2022-08-28T06:13:36.672Z,1012.71
2022-08-28T06:14:36.661Z,1012.72
2022-08-28T06:15:36.662Z,1012.69
2022-08-28T06:16:36.684Z,1012.75
2022-08-28T06:17:36.642Z,1012.73
2022-08-28T06:18:36.617Z,1012.74
2022-08-28T06:19:41.033Z,1012.77
2022-08-28T06:20:37.581Z,1012.78
2022-08-28T06:21:36.583Z,1012.79
2022-08-28T06:22:36.622Z,1012.74
2022-08-28T06:23:36.552Z,1012.77
2022-08-28T06:24:36.555Z,1012.79
2022-08-28T06:25:36.553Z,1012.78
2022-08-28T06:26:36.522Z,1012.76
2022-08-28T06:27:36.514Z,1012.74
2022-08-28T06:28:36.502Z,1012.75
2022-08-28T06:29:36.484Z,1012.77
2022-08-28T06:30:36.483Z,1012.71
2022-08-28T06:31:36.588Z,1012.68
2022-08-28T06:32:36.463Z,1012.76
2022-08-28T06:33:36.442Z,1012.76
2022-08-28T06:34:36.438Z,1012.76
2022-08-28T06:35:36.422Z,1012.77
2022-08-28T06:36:36.422Z,1012.82
2022-08-28T06:37:36.435Z,1012.85
2022-08-28T06:38:36.401Z,1012.84
2022-08-28T06:39:36.379Z,1012.87
2022-08-28T06:40:36.426Z,1012.90
2022-08-28T06:41:36.371Z,1012.84
2022-08-28T06:42:36.392Z,1012.88
2022-08-28T06:43:36.332Z,1012.88
2022-08-28T06:44:36.329Z,1012.86
2022-08-28T06:45:36.340Z,1012.86
2022-08-28T06:46:36.716Z,1012.85
2022-08-28T06:47:36.300Z,1012.84
2022-08-28T06:48:36.302Z,1012.88
2022-08-28T06:49:36.300Z,1012.84
2022-08-28T06:50:36.262Z,1012.85
2022-08-28T06:51:36.252Z,1012.89
2022-08-28T06:52:36.244Z,1012.92
2022-08-28T06:53:36.232Z,1012.89
2022-08-28T06:54:36.244Z,1012.91
2022-08-28T06:55:36.203Z,1012.89
2022-08-28T06:56:36.223Z,1012.89
2022-08-28T06:57:36.212Z,1012.91
2022-08-28T06:58:36.182Z,1012.97
2022-08-28T06:59:36.350Z,1012.91
2022-08-28T07:00:36.163Z,1012.93
2022-08-28T07:01:36.255Z,1012.96
2022-08-28T07:02:36.190Z,1012.96
2022-08-28T07:03:36.122Z,1012.92
2022-08-28T07:04:37.147Z,1012.99
2022-08-28T07:05:36.099Z,1012.97
2022-08-28T07:06:36.097Z,1012.97
2022-08-28T07:07:36.083Z,1012.96
2022-08-28T07:08:36.070Z,1012.94
2022-08-28T07:09:36.182Z,1012.94
2022-08-28T07:10:36.052Z,1012.96
2022-08-28T07:11:36.032Z,1012.93
2022-08-28T07:12:36.023Z,1012.93
2022-08-28T07:13:36.021Z,1012.98
2022-08-28T07:14:36.003Z,1012.97
2022-08-28T07:15:36.046Z,1013.00
2022-08-28T07:16:36.983Z,1013.01
2022-08-28T07:17:35.979Z,1013.08
2022-08-28T07:18:35.992Z,1013.05
2022-08-28T07:19:35.961Z,1013.08
2022-08-28T07:20:35.933Z,1013.08
2022-08-28T07:21:38.884Z,1013.08
2022-08-28T07:22:35.912Z,1013.08
2022-08-28T07:23:35.913Z,1013.11
2022-08-28T07:24:35.921Z,1013.15
2022-08-28T07:25:35.893Z,1013.13
2022-08-28T07:26:35.976Z,1013.07
2022-08-28T07:27:35.863Z,1013.06
2022-08-28T07:28:35.882Z,1013.10
2022-08-28T07:29:35.842Z,1013.09
2022-08-28T07:30:35.822Z,1013.13
2022-08-28T07:31:35.866Z,1013.08
2022-08-28T07:32:35.812Z,1013.15
2022-08-28T07:33:35.889Z,1013.08
2022-08-28T07:34:35.791Z,1013.12
2022-08-28T07:35:35.790Z,1013.11
2022-08-28T07:36:35.838Z,1013.11
2022-08-28T07:37:35.761Z,1013.14
2022-08-28T07:38:35.743Z,1013.15
2022-08-28T07:39:35.773Z,1013.18
2022-08-28T07:40:35.790Z,1013.17
2022-08-28T07:41:35.713Z,1013.11
2022-08-28T07:42:35.853Z,1013.16
2022-08-28T07:43:35.724Z,1013.14
2022-08-28T07:44:35.722Z,1013.11
2022-08-28T07:45:35.723Z,1013.12
2022-08-28T07:46:35.661Z,1013.12
2022-08-28T07:47:35.652Z,1013.10
2022-08-28T07:48:35.632Z,1013.18
2022-08-28T07:49:35.633Z,1013.17
2022-08-28T07:50:35.653Z,1013.16
2022-08-28T07:51:35.616Z,1013.15
2022-08-28T07:52:35.602Z,1013.14
2022-08-28T07:53:36.619Z,1013.15
2022-08-28T07:54:35.573Z,1013.14
2022-08-28T07:55:35.563Z,1013.17
2022-08-28T07:56:35.603Z,1013.19
2022-08-28T07:57:35.543Z,1013.19
2022-08-28T07:58:35.534Z,1013.14
2022-08-28T07:59:36.839Z,1013.18
2022-08-28T08:00:35.562Z,1013.17
2022-08-28T08:01:35.554Z,1013.21
2022-08-28T08:02:35.513Z,1013.22
2022-08-28T08:03:35.557Z,1013.27
2022-08-28T08:04:35.517Z,1013.21
2022-08-28T08:05:35.464Z,1013.18
2022-08-28T08:06:35.475Z,1013.24
2022-08-28T08:07:35.442Z,1013.21
2022-08-28T08:08:35.444Z,1013.27
2022-08-28T08:09:35.424Z,1013.18
2022-08-28T08:10:35.403Z,1013.20
2022-08-28T08:11:35.394Z,1013.20
2022-08-28T08:12:35.404Z,1013.27
2022-08-28T08:13:35.384Z,1013.29
2022-08-28T08:14:35.355Z,1013.27
2022-08-28T08:15:35.445Z,1013.28
2022-08-28T08:16:35.334Z,1013.28
2022-08-28T08:17:35.333Z,1013.35
2022-08-28T08:18:35.314Z,1013.27
2022-08-28T08:19:35.334Z,1013.34
2022-08-28T08:20:35.315Z,1013.33
2022-08-28T08:21:35.294Z,1013.30
2022-08-28T08:22:35.314Z,1013.49
2022-08-28T08:23:35.273Z,1013.35
2022-08-28T08:24:35.276Z,1013.42
2022-08-28T08:25:35.247Z,1013.34
2022-08-28T08:26:35.254Z,1013.41
2022-08-28T08:27:37.840Z,1013.35
2022-08-28T08:28:35.217Z,1013.42
2022-08-28T08:29:35.204Z,1013.35
2022-08-28T08:30:35.184Z,1013.37
2022-08-28T08:31:35.413Z,1013.35
2022-08-28T08:32:35.195Z,1013.40
2022-08-28T08:33:35.154Z,1013.32
2022-08-28T08:34:35.158Z,1013.35
2022-08-28T08:35:35.194Z,1013.33
2022-08-28T08:36:35.154Z,1013.42
2022-08-28T08:37:35.114Z,1013.34
2022-08-28T08:38:35.115Z,1013.36
2022-08-28T08:39:35.096Z,1013.33
2022-08-28T08:40:35.173Z,1013.35
2022-08-28T08:41:35.076Z,1013.26
2022-08-28T08:42:35.065Z,1013.25
2022-08-28T08:43:35.055Z,1013.23
2022-08-28T08:44:35.035Z,1013.21
2022-08-28T08:45:35.025Z,1013.29
2022-08-28T08:46:35.085Z,1013.31
2022-08-28T08:47:35.005Z,1013.35
2022-08-28T08:48:34.996Z,1013.31
2022-08-28T08:49:34.985Z,1013.24
2022-08-28T08:50:34.975Z,1013.26
2022-08-28T08:51:34.965Z,1013.30
2022-08-28T08:52:34.975Z,1013.28
2022-08-28T08:53:34.945Z,1013.38
2022-08-28T08:54:34.935Z,1013.36
2022-08-28T08:55:34.925Z,1013.36
2022-08-28T08:56:35.366Z,1013.31
2022-08-28T08:57:34.925Z,1013.30
2022-08-28T08:58:34.922Z,1013.29
2022-08-28T08:59:34.886Z,1013.25
2022-08-28T09:00:34.875Z,1013.29
2022-08-28T09:01:34.915Z,1013.30
2022-08-28T09:02:34.845Z,1013.29
2022-08-28T09:03:34.933Z,1013.33
2022-08-28T09:04:34.841Z,1013.36
2022-08-28T09:05:34.817Z,1013.29
2022-08-28T09:06:34.807Z,1013.30
2022-08-28T09:07:34.795Z,1013.30
2022-08-28T09:08:34.825Z,1013.23
2022-08-28T09:09:34.786Z,1013.33
2022-08-28T09:10:34.775Z,1013.31
2022-08-28T09:11:34.765Z,1013.36
2022-08-28T09:12:34.735Z,1013.31
2022-08-28T09:13:34.742Z,1013.34
2022-08-28T09:14:34.745Z,1013.42
2022-08-28T09:15:34.747Z,1013.41
2022-08-28T09:16:34.705Z,1013.44
2022-08-28T09:17:34.695Z,1013.43
2022-08-28T09:18:34.685Z,1013.37
2022-08-28T09:19:34.706Z,1013.34
2022-08-28T09:20:34.656Z,1013.39
2022-08-28T09:21:34.646Z,1013.36
2022-08-28T09:22:34.675Z,1013.30
2022-08-28T09:23:34.626Z,1013.38
2022-08-28T09:24:34.644Z,1013.39
2022-08-28T09:25:34.606Z,1013.37
2022-08-28T09:26:34.604Z,1013.39
2022-08-28T09:27:34.635Z,1013.39
2022-08-28T09:28:34.596Z,1013.31
2022-08-28T09:29:34.575Z,1013.34
2022-08-28T09:30:34.565Z,1013.36
2022-08-28T09:31:34.545Z,1013.42
2022-08-28T09:32:34.548Z,1013.37
2022-08-28T09:33:34.536Z,1013.36
2022-08-28T09:34:38.751Z,1013.32
2022-08-28T09:35:34.507Z,1013.34
2022-08-28T09:36:34.496Z,1013.36
2022-08-28T09:37:34.487Z,1013.33
2022-08-28T09:38:34.467Z,1013.35
2022-08-28T09:39:34.506Z,1013.40
2022-08-28T09:40:34.504Z,1013.36
2022-08-28T09:41:34.455Z,1013.36
2022-08-28T09:42:34.426Z,1013.36
2022-08-28T09:43:34.416Z,1013.36
2022-08-28T09:44:34.406Z,1013.37
2022-08-28T09:45:34.426Z,1013.40
2022-08-28T09:46:34.461Z,1013.38
2022-08-28T09:47:34.377Z,1013.37
2022-08-28T09:48:34.377Z,1013.37
2022-08-28T09:49:34.356Z,1013.36
2022-08-28T09:50:34.366Z,1013.36
2022-08-28T09:51:34.336Z,1013.33
2022-08-28T09:52:34.345Z,1013.38
2022-08-28T09:53:34.344Z,1013.38
2022-08-28T09:54:34.296Z,1013.36
2022-08-28T09:55:34.319Z,1013.33
2022-08-28T09:56:34.276Z,1013.31
2022-08-28T09:57:34.267Z,1013.30
2022-08-28T09:58:34.257Z,1013.29
2022-08-28T09:59:34.256Z,1013.32
2022-08-28T10:00:34.259Z,1013.29
2022-08-28T10:01:34.329Z,1013.29
2022-08-28T10:02:34.239Z,1013.30
2022-08-28T10:03:34.207Z,1013.31
2022-08-28T10:04:34.236Z,1013.30
2022-08-28T10:05:34.188Z,1013.29
2022-08-28T10:06:34.167Z,1013.29
2022-08-28T10:07:34.379Z,1013.31
2022-08-28T10:08:34.147Z,1013.28
2022-08-28T10:09:34.137Z,1013.26
2022-08-28T10:10:34.128Z,1013.16
2022-08-28T10:11:34.158Z,1013.27
2022-08-28T10:12:34.107Z,1013.22
2022-08-28T10:13:34.097Z,1013.21
2022-08-28T10:14:34.087Z,1013.23
2022-08-28T10:15:34.142Z,1013.24
2022-08-28T10:16:34.109Z,1013.24
2022-08-28T10:17:34.069Z,1013.15
2022-08-28T10:18:34.091Z,1013.18
2022-08-28T10:19:34.038Z,1013.21
2022-08-28T10:20:34.019Z,1013.23
2022-08-28T10:21:34.057Z,1013.29
2022-08-28T10:22:34.001Z,1013.18
2022-08-28T10:23:33.994Z,1013.16
2022-08-28T10:24:34.027Z,1013.22
2022-08-28T10:25:33.978Z,1013.24
2022-08-28T10:26:33.967Z,1013.27
2022-08-28T10:27:33.958Z,1013.27
2022-08-28T10:28:33.938Z,1013.23
2022-08-28T10:29:33.929Z,1013.21
2022-08-28T10:30:34.098Z,1013.18
2022-08-28T10:31:33.980Z,1013.20
2022-08-28T10:32:33.889Z,1013.14
2022-08-28T10:33:33.898Z,1013.14
2022-08-28T10:34:33.868Z,1013.16
2022-08-28T10:35:33.862Z,1013.22
2022-08-28T10:36:35.120Z,1013.18
2022-08-28T10:37:33.859Z,1013.09
2022-08-28T10:38:33.820Z,1013.13
2022-08-28T10:39:33.839Z,1013.18
2022-08-28T10:40:33.877Z,1013.13
2022-08-28T10:41:33.799Z,1013.18
2022-08-28T10:42:36.200Z,1013.23
2022-08-28T10:43:33.809Z,1013.23
2022-08-28T10:44:33.776Z,1013.16
2022-08-28T10:45:33.759Z,1013.20
2022-08-28T10:46:33.776Z,1013.24
2022-08-28T10:47:33.740Z,1013.20
2022-08-28T10:48:33.719Z,1013.22
2022-08-28T10:49:33.759Z,1013.22
2022-08-28T10:50:33.707Z,1013.20
2022-08-28T10:51:35.202Z,1013.16
2022-08-28T10:52:33.681Z,1013.16
2022-08-28T10:53:33.670Z,1013.15
2022-08-28T10:54:33.660Z,1013.15
2022-08-28T10:55:33.650Z,1013.12
2022-08-28T10:56:33.755Z,1013.14
2022-08-28T10:57:37.429Z,1013.15
2022-08-28T10:58:34.611Z,1013.14
2022-08-28T10:59:33.600Z,1013.18
2022-08-28T11:00:34.601Z,1013.22
2022-08-28T11:01:33.630Z,1013.22
2022-08-28T11:02:33.696Z,1013.20
2022-08-28T11:03:35.109Z,1013.24
2022-08-28T11:04:33.553Z,1013.20
2022-08-28T11:05:33.543Z,1013.17
2022-08-28T11:06:33.538Z,1013.14
2022-08-28T11:07:33.552Z,1013.14
2022-08-28T11:08:33.511Z,1013.20
2022-08-28T11:10:43.515Z,1013.19
2022-08-28T11:11:43.484Z,1013.17
2022-08-28T11:12:43.505Z,1013.18
2022-08-28T11:13:43.475Z,1013.16
2022-08-28T11:14:48.176Z,1013.17
2022-08-28T11:15:44.438Z,1013.20
2022-08-28T11:16:43.484Z,1013.23
2022-08-28T11:17:43.445Z,1013.21
2022-08-28T11:18:43.437Z,1013.14
2022-08-28T11:19:44.956Z,1013.12
2022-08-28T11:20:43.388Z,1013.19
2022-08-28T11:21:43.376Z,1013.19
2022-08-28T11:22:43.415Z,1013.20
2022-08-28T11:23:43.355Z,1013.13
2022-08-28T11:24:43.821Z,1013.08
2022-08-28T11:25:43.356Z,1013.10
2022-08-28T11:26:43.327Z,1013.20
2022-08-28T11:27:43.313Z,1013.09
2022-08-28T11:28:43.336Z,1013.14
2022-08-28T11:29:43.290Z,1013.14
2022-08-28T11:30:43.398Z,1013.13
2022-08-28T11:31:43.276Z,1013.19
2022-08-28T11:32:47.032Z,1013.27
2022-08-28T11:33:43.247Z,1013.22
2022-08-28T11:34:43.234Z,1013.20
2022-08-28T11:35:43.230Z,1013.21
2022-08-28T11:36:43.215Z,1013.19
2022-08-28T11:37:43.198Z,1013.24
2022-08-28T11:38:43.229Z,1013.18
2022-08-28T11:39:43.177Z,1013.16
2022-08-28T11:40:43.169Z,1013.26
2022-08-28T11:41:43.186Z,1013.25
2022-08-28T11:42:43.157Z,1013.21
2022-08-28T11:43:43.126Z,1013.24
2022-08-28T11:44:43.157Z,1013.26
2022-08-28T11:45:45.819Z,1013.23
2022-08-28T11:46:43.137Z,1013.28
2022-08-28T11:47:43.128Z,1013.28
2022-08-28T11:48:43.078Z,1013.27
2022-08-28T11:49:43.097Z,1013.25
2022-08-28T11:50:43.078Z,1013.24
2022-08-28T11:51:43.048Z,1013.20
2022-08-28T11:52:43.038Z,1013.25
2022-08-28T11:53:43.027Z,1013.24
2022-08-28T11:54:43.017Z,1013.30
2022-08-28T11:55:43.037Z,1013.29
2022-08-28T11:56:42.994Z,1013.30
2022-08-28T11:57:42.978Z,1013.23
2022-08-28T11:58:42.975Z,1013.14
2022-08-28T11:59:43.008Z,1013.20
2022-08-28T12:00:42.967Z,1013.20
2022-08-28T12:01:42.938Z,1013.18
2022-08-28T12:02:43.000Z,1013.18
2022-08-28T12:03:42.921Z,1013.17
2022-08-28T12:04:43.056Z,1013.16
2022-08-28T12:05:45.200Z,1013.17
2022-08-28T12:06:42.890Z,1013.22